sensor_id;sensor_type;location;lat;lon;timestamp;pressure;altitude;pressure_sealevel;temperature;humidity
41632;BME280;37452;51.938;4.624;2022-07-17T00:01:20;77928.78;;;-142.75;100.00
41632;BME280;37452;51.938;4.624;2022-07-17T00:03:45;77938.63;;;-142.75;100.00
41632;BME280;37452;51.938;4.624;2022-07-17T00:06:11;77944.53;;;-142.75;100.00
41632;BME280;37452;51.938;4.624;2022-07-17T00:08:36;77944.53;;;-142.75;100.00
41632;BME280;37452;51.938;4.624;2022-07-17T00:11:01;77948.47;;;-142.75;100.00
41632;BME280;37452;51.938;4.624;2022-07-17T00:13:26;77948.47;;;-142.75;100.00
41632;BME280;37452;51.938;4.624;2022-07-17T00:15:52;77950.44;;;-142.75;100.00
41632;BME280;37452;51.938;4.624;2022-07-17T00:18:17;77952.41;;;-142.75;100.00
41632;BME280;37452;51.938;4.624;2022-07-17T00:20:42;77958.31;;;-142.75;100.00
41632;BME280;37452;51.938;4.624;2022-07-17T00:23:09;77962.25;;;-142.75;100.00
41632;BME280;37452;51.938;4.624;2022-07-17T00:25:34;77960.28;;;-142.75;100.00
41632;BME280;37452;51.938;4.624;2022-07-17T00:27:59;77958.31;;;-142.75;100.00
41632;BME280;37452;51.938;4.624;2022-07-17T00:30:24;77956.34;;;-142.75;100.00
41632;BME280;37452;51.938;4.624;2022-07-17T00:32:50;77952.41;;;-142.75;100.00
41632;BME280;37452;51.938;4.624;2022-07-17T00:35:15;77956.34;;;-142.75;100.00
41632;BME280;37452;51.938;4.624;2022-07-17T00:37:41;77956.34;;;-142.75;100.00
41632;BME280;37452;51.938;4.624;2022-07-17T00:40:07;77952.41;;;-142.75;100.00
41632;BME280;37452;51.938;4.624;2022-07-17T00:42:33;77948.47;;;-142.75;100.00
41632;BME280;37452;51.938;4.624;2022-07-17T00:45:00;77952.41;;;-142.75;100.00
41632;BME280;37452;51.938;4.624;2022-07-17T00:47:25;77952.41;;;-142.75;100.00
41632;BME280;37452;51.938;4.624;2022-07-17T00:49:50;77954.38;;;-142.75;100.00
41632;BME280;37452;51.938;4.624;2022-07-17T00:52:16;77960.28;;;-142.75;100.00
41632;BME280;37452;51.938;4.624;2022-07-17T00:54:43;77960.28;;;-142.75;100.00
41632;BME280;37452;51.938;4.624;2022-07-17T00:57:13;77962.25;;;-142.75;100.00
41632;BME280;37452;51.938;4.624;2022-07-17T00:59:39;77960.28;;;-142.75;100.00
41632;BME280;37452;51.938;4.624;2022-07-17T01:02:07;77952.41;;;-142.75;100.00
41632;BME280;37452;51.938;4.624;2022-07-17T01:04:33;77956.34;;;-142.75;100.00
41632;BME280;37452;51.938;4.624;2022-07-17T01:06:59;77950.44;;;-142.75;100.00
41632;BME280;37452;51.938;4.624;2022-07-17T01:09:26;77936.66;;;-142.75;100.00
41632;BME280;37452;51.938;4.624;2022-07-17T01:11:51;77928.78;;;-142.75;100.00
41632;BME280;37452;51.938;4.624;2022-07-17T01:14:16;77911.06;;;-142.75;100.00
41632;BME280;37452;51.938;4.624;2022-07-17T01:16:42;77909.06;;;-142.75;100.00
41632;BME280;37452;51.938;4.624;2022-07-17T01:19:07;77897.25;;;-142.75;100.00
41632;BME280;37452;51.938;4.624;2022-07-17T01:21:38;77893.31;;;-142.75;100.00
41632;BME280;37452;51.938;4.624;2022-07-17T01:24:03;77895.28;;;-142.75;100.00
41632;BME280;37452;51.938;4.624;2022-07-17T01:26:28;77905.13;;;-142.75;100.00
41632;BME280;37452;51.938;4.624;2022-07-17T01:28:54;77920.91;;;-142.75;100.00
41632;BME280;37452;51.938;4.624;2022-07-17T01:31:19;77922.88;;;-142.75;100.00
41632;BME280;37452;51.938;4.624;2022-07-17T01:33:44;77934.69;;;-142.75;100.00
41632;BME280;37452;51.938;4.624;2022-07-17T01:36:09;77940.59;;;-142.75;100.00
41632;BME280;37452;51.938;4.624;2022-07-17T01:38:34;77940.59;;;-142.75;100.00
41632;BME280;37452;51.938;4.624;2022-07-17T01:40:59;77942.56;;;-142.75;100.00
41632;BME280;37452;51.938;4.624;2022-07-17T01:43:25;77938.63;;;-142.75;100.00
41632;BME280;37452;51.938;4.624;2022-07-17T01:45:50;77928.78;;;-142.75;100.00
41632;BME280;37452;51.938;4.624;2022-07-17T01:48:22;77920.91;;;-142.75;100.00
41632;BME280;37452;51.938;4.624;2022-07-17T01:50:48;77920.91;;;-142.75;100.00
41632;BME280;37452;51.938;4.624;2022-07-17T01:53:13;77909.06;;;-142.75;100.00
41632;BME280;37452;51.938;4.624;2022-07-17T01:55:38;77905.13;;;-142.75;100.00
41632;BME280;37452;51.938;4.624;2022-07-17T01:58:04;77911.06;;;-142.75;100.00
41632;BME280;37452;51.938;4.624;2022-07-17T02:00:30;77913.03;;;-142.75;100.00
41632;BME280;37452;51.938;4.624;2022-07-17T02:02:55;77922.88;;;-142.75;100.00
41632;BME280;37452;51.938;4.624;2022-07-17T02:05:20;77938.63;;;-142.75;100.00
41632;BME280;37452;51.938;4.624;2022-07-17T02:07:46;77964.22;;;-142.75;100.00
41632;BME280;37452;51.938;4.624;2022-07-17T02:10:11;77968.16;;;-142.75;100.00
41632;BME280;37452;51.938;4.624;2022-07-17T02:12:38;77979.97;;;-142.75;100.00
41632;BME280;37452;51.938;4.624;2022-07-17T02:15:04;77987.84;;;-142.75;100.00
41632;BME280;37452;51.938;4.624;2022-07-17T02:17:29;77993.75;;;-142.75;100.00
41632;BME280;37452;51.938;4.624;2022-07-17T02:19:55;77991.78;;;-142.75;100.00
41632;BME280;37452;51.938;4.624;2022-07-17T02:22:20;77997.69;;;-142.75;100.00
41632;BME280;37452;51.938;4.624;2022-07-17T02:24:45;77991.78;;;-142.75;100.00
41632;BME280;37452;51.938;4.624;2022-07-17T02:27:10;77985.88;;;-142.75;100.00
41632;BME280;37452;51.938;4.624;2022-07-17T02:29:35;77974.06;;;-142.75;100.00
41632;BME280;37452;51.938;4.624;2022-07-17T02:32:00;77968.16;;;-142.75;100.00
41632;BME280;37452;51.938;4.624;2022-07-17T02:34:26;77974.06;;;-142.75;100.00
41632;BME280;37452;51.938;4.624;2022-07-17T02:36:51;77972.09;;;-142.75;100.00
41632;BME280;37452;51.938;4.624;2022-07-17T02:39:16;77978.00;;;-142.75;100.00
41632;BME280;37452;51.938;4.624;2022-07-17T02:41:41;77979.97;;;-142.75;100.00
41632;BME280;37452;51.938;4.624;2022-07-17T02:44:06;77985.88;;;-142.75;100.00
41632;BME280;37452;51.938;4.624;2022-07-17T02:46:32;78001.63;;;-142.75;100.00
41632;BME280;37452;51.938;4.624;2022-07-17T02:48:57;78005.56;;;-142.75;100.00
41632;BME280;37452;51.938;4.624;2022-07-17T02:51:22;78005.56;;;-142.75;100.00
41632;BME280;37452;51.938;4.624;2022-07-17T02:53:47;78013.44;;;-142.75;100.00
41632;BME280;37452;51.938;4.624;2022-07-17T02:56:12;78015.41;;;-142.75;100.00
41632;BME280;37452;51.938;4.624;2022-07-17T02:58:38;78031.16;;;-142.75;100.00
41632;BME280;37452;51.938;4.624;2022-07-17T03:01:03;78041.00;;;-142.75;100.00
41632;BME280;37452;51.938;4.624;2022-07-17T03:03:28;78042.97;;;-142.75;100.00
41632;BME280;37452;51.938;4.624;2022-07-17T03:05:53;78042.97;;;-142.75;100.00
41632;BME280;37452;51.938;4.624;2022-07-17T03:08:19;78052.81;;;-142.75;100.00
41632;BME280;37452;51.938;4.624;2022-07-17T03:10:44;78054.81;;;-142.75;100.00
41632;BME280;37452;51.938;4.624;2022-07-17T03:13:09;78066.63;;;-142.75;100.00
41632;BME280;37452;51.938;4.624;2022-07-17T03:15:34;78058.72;;;-142.75;100.00
41632;BME280;37452;51.938;4.624;2022-07-17T03:17:59;78054.81;;;-142.75;100.00
41632;BME280;37452;51.938;4.624;2022-07-17T03:20:25;78062.69;;;-142.75;100.00
41632;BME280;37452;51.938;4.624;2022-07-17T03:22:50;78062.69;;;-142.75;100.00
41632;BME280;37452;51.938;4.624;2022-07-17T03:25:15;78062.69;;;-142.75;100.00
41632;BME280;37452;51.938;4.624;2022-07-17T03:27:40;78064.66;;;-142.75;100.00
41632;BME280;37452;51.938;4.624;2022-07-17T03:30:06;78072.53;;;-142.75;100.00
41632;BME280;37452;51.938;4.624;2022-07-17T03:32:31;78072.53;;;-142.75;100.00
41632;BME280;37452;51.938;4.624;2022-07-17T03:34:57;78072.53;;;-142.75;100.00
41632;BME280;37452;51.938;4.624;2022-07-17T03:37:22;78080.41;;;-142.75;100.00
41632;BME280;37452;51.938;4.624;2022-07-17T03:39:47;78086.31;;;-142.75;100.00
41632;BME280;37452;51.938;4.624;2022-07-17T03:42:12;78092.22;;;-142.75;100.00
41632;BME280;37452;51.938;4.624;2022-07-17T03:44:37;78094.19;;;-142.75;100.00
41632;BME280;37452;51.938;4.624;2022-07-17T03:47:02;78090.25;;;-142.75;100.00
41632;BME280;37452;51.938;4.624;2022-07-17T03:49:28;78094.19;;;-142.75;100.00
41632;BME280;37452;51.938;4.624;2022-07-17T03:51:53;78094.19;;;-142.75;100.00
41632;BME280;37452;51.938;4.624;2022-07-17T03:54:18;78098.13;;;-142.75;100.00
41632;BME280;37452;51.938;4.624;2022-07-17T03:56:43;78094.19;;;-142.75;100.00
41632;BME280;37452;51.938;4.624;2022-07-17T03:59:08;78078.44;;;-142.75;100.00
41632;BME280;37452;51.938;4.624;2022-07-17T04:01:34;78072.53;;;-142.75;100.00
41632;BME280;37452;51.938;4.624;2022-07-17T04:03:59;78066.63;;;-142.75;100.00
41632;BME280;37452;51.938;4.624;2022-07-17T04:06:24;78058.72;;;-142.75;100.00
41632;BME280;37452;51.938;4.624;2022-07-17T04:08:49;78058.72;;;-142.75;100.00
41632;BME280;37452;51.938;4.624;2022-07-17T04:11:14;78058.72;;;-142.75;100.00
41632;BME280;37452;51.938;4.624;2022-07-17T04:13:40;78056.78;;;-142.75;100.00
41632;BME280;37452;51.938;4.624;2022-07-17T04:16:05;78062.69;;;-142.75;100.00
41632;BME280;37452;51.938;4.624;2022-07-17T04:18:31;78066.63;;;-142.75;100.00
41632;BME280;37452;51.938;4.624;2022-07-17T04:21:01;78068.59;;;-142.75;100.00
41632;BME280;37452;51.938;4.624;2022-07-17T04:23:26;78066.63;;;-142.75;100.00
41632;BME280;37452;51.938;4.624;2022-07-17T04:25:52;78068.59;;;-142.75;100.00
41632;BME280;37452;51.938;4.624;2022-07-17T04:28:17;78070.56;;;-142.75;100.00
41632;BME280;37452;51.938;4.624;2022-07-17T04:30:43;78068.59;;;-142.75;100.00
41632;BME280;37452;51.938;4.624;2022-07-17T04:33:08;78066.63;;;-142.75;100.00
41632;BME280;37452;51.938;4.624;2022-07-17T04:35:33;78064.66;;;-142.75;100.00
41632;BME280;37452;51.938;4.624;2022-07-17T04:37:59;78066.63;;;-142.75;100.00
41632;BME280;37452;51.938;4.624;2022-07-17T04:40:24;78062.69;;;-142.75;100.00
41632;BME280;37452;51.938;4.624;2022-07-17T04:42:49;78054.81;;;-142.75;100.00
41632;BME280;37452;51.938;4.624;2022-07-17T04:45:15;78054.81;;;-142.75;100.00
41632;BME280;37452;51.938;4.624;2022-07-17T04:47:40;78042.97;;;-142.75;100.00
41632;BME280;37452;51.938;4.624;2022-07-17T04:50:06;78019.34;;;-142.75;100.00
41632;BME280;37452;51.938;4.624;2022-07-17T04:52:31;77999.66;;;-142.75;100.00
41632;BME280;37452;51.938;4.624;2022-07-17T04:54:56;77989.81;;;-142.75;100.00
41632;BME280;37452;51.938;4.624;2022-07-17T04:57:21;77985.88;;;-142.75;100.00
41632;BME280;37452;51.938;4.624;2022-07-17T04:59:47;77972.09;;;-142.75;100.00
41632;BME280;37452;51.938;4.624;2022-07-17T05:02:12;77964.22;;;-142.75;100.00
41632;BME280;37452;51.938;4.624;2022-07-17T05:04:37;77944.53;;;-142.75;100.00
41632;BME280;37452;51.938;4.624;2022-07-17T05:07:02;77936.66;;;-142.75;100.00
41632;BME280;37452;51.938;4.624;2022-07-17T05:09:27;77936.66;;;-142.75;100.00
41632;BME280;37452;51.938;4.624;2022-07-17T05:11:53;77924.84;;;-142.75;100.00
41632;BME280;37452;51.938;4.624;2022-07-17T05:14:18;77924.84;;;-142.75;100.00
41632;BME280;37452;51.938;4.624;2022-07-17T05:16:43;77928.78;;;-142.75;100.00
41632;BME280;37452;51.938;4.624;2022-07-17T05:19:08;77918.94;;;-142.75;100.00
41632;BME280;37452;51.938;4.624;2022-07-17T05:21:33;77901.19;;;-142.75;100.00
41632;BME280;37452;51.938;4.624;2022-07-17T05:23:59;77887.41;;;-142.75;100.00
41632;BME280;37452;51.938;4.624;2022-07-17T05:26:24;77889.38;;;-142.75;100.00
41632;BME280;37452;51.938;4.624;2022-07-17T05:28:49;77881.50;;;-142.75;100.00
41632;BME280;37452;51.938;4.624;2022-07-17T05:31:15;77881.50;;;-142.75;100.00
41632;BME280;37452;51.938;4.624;2022-07-17T05:33:40;77879.53;;;-142.75;100.00
41632;BME280;37452;51.938;4.624;2022-07-17T05:36:05;77881.50;;;-142.75;100.00
41632;BME280;37452;51.938;4.624;2022-07-17T05:38:30;77877.56;;;-142.75;100.00
41632;BME280;37452;51.938;4.624;2022-07-17T05:40:56;77869.69;;;-142.75;100.00
41632;BME280;37452;51.938;4.624;2022-07-17T05:43:21;77857.88;;;-142.75;100.00
41632;BME280;37452;51.938;4.624;2022-07-17T05:45:46;77838.19;;;-142.75;100.00
41632;BME280;37452;51.938;4.624;2022-07-17T05:48:11;77826.38;;;-142.75;100.00
41632;BME280;37452;51.938;4.624;2022-07-17T05:50:37;77822.44;;;-142.75;100.00
41632;BME280;37452;51.938;4.624;2022-07-17T05:53:02;77800.78;;;-142.75;100.00
41632;BME280;37452;51.938;4.624;2022-07-17T05:55:27;77798.81;;;-142.75;100.00
41632;BME280;37452;51.938;4.624;2022-07-17T05:57:52;77798.81;;;-142.75;100.00
41632;BME280;37452;51.938;4.624;2022-07-17T06:00:18;77785.03;;;-142.75;100.00
41632;BME280;37452;51.938;4.624;2022-07-17T06:02:43;77761.41;;;-142.75;100.00
41632;BME280;37452;51.938;4.624;2022-07-17T06:05:09;77741.72;;;-142.75;100.00
41632;BME280;37452;51.938;4.624;2022-07-17T06:07:35;77729.88;;;-142.75;100.00
41632;BME280;37452;51.938;4.624;2022-07-17T06:10:00;77720.03;;;-142.75;100.00
41632;BME280;37452;51.938;4.624;2022-07-17T06:12:25;77704.28;;;-142.75;100.00
41632;BME280;37452;51.938;4.624;2022-07-17T06:14:50;77700.34;;;-142.75;100.00
41632;BME280;37452;51.938;4.624;2022-07-17T06:17:15;77692.47;;;-142.75;100.00
41632;BME280;37452;51.938;4.624;2022-07-17T06:19:41;77686.56;;;-142.75;100.00
41632;BME280;37452;51.938;4.624;2022-07-17T06:22:06;77678.69;;;-142.75;100.00
41632;BME280;37452;51.938;4.624;2022-07-17T06:24:31;77655.06;;;-142.75;100.00
41632;BME280;37452;51.938;4.624;2022-07-17T06:26:56;77659.00;;;-142.75;100.00
41632;BME280;37452;51.938;4.624;2022-07-17T06:29:21;77637.34;;;-142.75;100.00
41632;BME280;37452;51.938;4.624;2022-07-17T06:31:47;77615.69;;;-142.75;100.00
41632;BME280;37452;51.938;4.624;2022-07-17T06:34:12;77605.84;;;-142.75;100.00
41632;BME280;37452;51.938;4.624;2022-07-17T06:36:37;77580.25;;;-142.75;100.00
41632;BME280;37452;51.938;4.624;2022-07-17T06:39:02;77558.59;;;-142.75;100.00
41632;BME280;37452;51.938;4.624;2022-07-17T06:41:27;77538.91;;;-142.75;100.00
41632;BME280;37452;51.938;4.624;2022-07-17T06:43:53;77523.16;;;-142.75;100.00
41632;BME280;37452;51.938;4.624;2022-07-17T06:46:18;77509.38;;;-142.75;100.00
41632;BME280;37452;51.938;4.624;2022-07-17T06:48:43;77479.84;;;-142.75;100.00
41632;BME280;37452;51.938;4.624;2022-07-17T06:51:08;77462.13;;;-142.75;100.00
41632;BME280;37452;51.938;4.624;2022-07-17T06:53:34;77450.28;;;-142.75;100.00
41632;BME280;37452;51.938;4.624;2022-07-17T06:55:59;77432.56;;;-142.75;100.00
41632;BME280;37452;51.938;4.624;2022-07-17T06:58:24;77418.78;;;-142.75;100.00
41632;BME280;37452;51.938;4.624;2022-07-17T07:00:49;77397.13;;;-142.75;100.00
41632;BME280;37452;51.938;4.624;2022-07-17T07:03:14;77391.22;;;-142.75;100.00
41632;BME280;37452;51.938;4.624;2022-07-17T07:05:40;77373.50;;;-142.75;100.00
41632;BME280;37452;51.938;4.624;2022-07-17T07:08:05;77371.53;;;-142.75;100.00
41632;BME280;37452;51.938;4.624;2022-07-17T07:10:30;77351.84;;;-142.75;100.00
41632;BME280;37452;51.938;4.624;2022-07-17T07:12:56;77326.25;;;-142.75;100.00
41632;BME280;37452;51.938;4.624;2022-07-17T07:15:21;77347.91;;;-142.75;100.00
41632;BME280;37452;51.938;4.624;2022-07-17T07:17:46;77322.31;;;-142.75;100.00
41632;BME280;37452;51.938;4.624;2022-07-17T07:20:12;77342.00;;;-142.75;100.00
41632;BME280;37452;51.938;4.624;2022-07-17T07:22:38;77314.44;;;-142.75;100.00
41632;BME280;37452;51.938;4.624;2022-07-17T07:25:03;77277.03;;;-142.75;100.00
41632;BME280;37452;51.938;4.624;2022-07-17T07:27:29;77247.50;;;-142.75;100.00
41632;BME280;37452;51.938;4.624;2022-07-17T07:29:54;77223.88;;;-142.75;100.00
41632;BME280;37452;51.938;4.624;2022-07-17T07:32:19;77196.31;;;-142.75;100.00
41632;BME280;37452;51.938;4.624;2022-07-17T07:34:44;77196.31;;;-142.75;100.00
41632;BME280;37452;51.938;4.624;2022-07-17T07:37:09;77180.56;;;-142.75;100.00
41632;BME280;37452;51.938;4.624;2022-07-17T07:39:35;77204.19;;;-142.75;100.00
41632;BME280;37452;51.938;4.624;2022-07-17T07:42:00;77200.25;;;-142.75;100.00
41632;BME280;37452;51.938;4.624;2022-07-17T07:44:25;77212.06;;;-142.75;100.00
41632;BME280;37452;51.938;4.624;2022-07-17T07:46:51;77168.75;;;-142.75;100.00
41632;BME280;37452;51.938;4.624;2022-07-17T07:49:16;77153.00;;;-142.75;100.00
41632;BME280;37452;51.938;4.624;2022-07-17T07:51:42;77145.13;;;-142.75;100.00
41632;BME280;37452;51.938;4.624;2022-07-17T07:54:07;77137.25;;;-142.75;100.00
41632;BME280;37452;51.938;4.624;2022-07-17T07:56:32;77127.41;;;-142.75;100.00
41632;BME280;37452;51.938;4.624;2022-07-17T07:58:58;77125.44;;;-142.75;100.00
41632;BME280;37452;51.938;4.624;2022-07-17T08:01:23;77137.25;;;-142.75;100.00
41632;BME280;37452;51.938;4.624;2022-07-17T08:03:49;77123.47;;;-142.75;100.00
41632;BME280;37452;51.938;4.624;2022-07-17T08:06:14;77101.81;;;-142.75;100.00
41632;BME280;37452;51.938;4.624;2022-07-17T08:08:39;77090.00;;;-142.75;100.00
41632;BME280;37452;51.938;4.624;2022-07-17T08:11:04;77117.56;;;-142.75;99.03
41632;BME280;37452;51.938;4.624;2022-07-17T08:13:30;77109.69;;;-142.75;100.00
41632;BME280;37452;51.938;4.624;2022-07-17T08:15:56;77074.25;;;-142.75;100.00
41632;BME280;37452;51.938;4.624;2022-07-17T08:18:22;77064.41;;;-142.75;100.00
41632;BME280;37452;51.938;4.624;2022-07-17T08:20:47;77054.56;;;-142.75;100.00
41632;BME280;37452;51.938;4.624;2022-07-17T08:23:12;77052.59;;;-142.75;100.00
41632;BME280;37452;51.938;4.624;2022-07-17T08:25:37;77038.81;;;-142.75;100.00
41632;BME280;37452;51.938;4.624;2022-07-17T08:28:03;77027.00;;;-142.75;100.00
41632;BME280;37452;51.938;4.624;2022-07-17T08:30:28;77015.19;;;-142.75;100.00
41632;BME280;37452;51.938;4.624;2022-07-17T08:32:56;76995.50;;;-142.75;96.15
41632;BME280;37452;51.938;4.624;2022-07-17T08:35:21;76964.00;;;-142.75;95.17
41632;BME280;37452;51.938;4.624;2022-07-17T08:37:47;76960.06;;;-142.75;91.24
41632;BME280;37452;51.938;4.624;2022-07-17T08:40:19;76932.50;;;-142.75;86.13
41632;BME280;37452;51.938;4.624;2022-07-17T08:42:45;76912.81;;;-142.75;83.11
41632;BME280;37452;51.938;4.624;2022-07-17T08:45:11;76924.63;;;-142.75;83.54
41632;BME280;37452;51.938;4.624;2022-07-17T08:47:37;76922.66;;;-142.75;84.75
41632;BME280;37452;51.938;4.624;2022-07-17T08:50:02;76887.22;;;-142.75;85.95
41632;BME280;37452;51.938;4.624;2022-07-17T08:52:28;76889.19;;;-142.75;85.59
41632;BME280;37452;51.938;4.624;2022-07-17T08:54:53;76865.56;;;-142.75;82.90
41632;BME280;37452;51.938;4.624;2022-07-17T08:57:18;76814.38;;;-142.75;86.70
41632;BME280;37452;51.938;4.624;2022-07-17T08:59:47;76814.38;;;-142.75;83.76
41632;BME280;37452;51.938;4.624;2022-07-17T09:02:12;76818.31;;;-142.75;79.83
41632;BME280;37452;51.938;4.624;2022-07-17T09:04:37;76810.44;;;-142.75;79.84
41632;BME280;37452;51.938;4.624;2022-07-17T09:07:04;76792.75;;;-142.75;81.01
41632;BME280;37452;51.938;4.624;2022-07-17T09:09:30;76808.50;;;-142.75;80.39
41632;BME280;37452;51.938;4.624;2022-07-17T09:11:55;76810.44;;;-142.75;80.93
41632;BME280;37452;51.938;4.624;2022-07-17T09:14:23;76806.50;;;-142.75;82.01
41632;BME280;37452;51.938;4.624;2022-07-17T09:19:24;76830.13;;;-142.75;82.45
41632;BME280;37452;51.938;4.624;2022-07-17T09:21:50;76790.78;;;-142.75;79.15
41632;BME280;37452;51.938;4.624;2022-07-17T09:24:15;76778.97;;;-142.75;76.27
41632;BME280;37452;51.938;4.624;2022-07-17T09:26:43;76796.69;;;-142.75;81.92
41632;BME280;37452;51.938;4.624;2022-07-17T09:29:09;76741.56;;;-142.75;80.21
41632;BME280;37452;51.938;4.624;2022-07-17T09:31:37;76717.94;;;-142.75;74.23
41632;BME280;37452;51.938;4.624;2022-07-17T09:34:02;76723.84;;;-142.75;73.00
41632;BME280;37452;51.938;4.624;2022-07-17T09:36:27;76715.97;;;-142.75;75.07
41632;BME280;37452;51.938;4.624;2022-07-17T09:38:53;76708.09;;;-142.75;72.67
41632;BME280;37452;51.938;4.624;2022-07-17T09:41:19;76662.81;;;-142.75;73.26
41632;BME280;37452;51.938;4.624;2022-07-17T09:43:52;76670.69;;;-142.75;70.01
41632;BME280;37452;51.938;4.624;2022-07-17T09:46:19;76645.09;;;-142.75;69.87
41632;BME280;37452;51.938;4.624;2022-07-17T09:48:46;76656.91;;;-142.75;69.17
41632;BME280;37452;51.938;4.624;2022-07-17T09:51:18;76637.22;;;-142.75;74.43
41632;BME280;37452;51.938;4.624;2022-07-17T09:53:47;76621.47;;;-142.75;71.66
41632;BME280;37452;51.938;4.624;2022-07-17T09:56:13;76621.47;;;-142.75;69.38
41632;BME280;37452;51.938;4.624;2022-07-17T09:58:40;76645.09;;;-142.75;67.56
41632;BME280;37452;51.938;4.624;2022-07-17T10:01:08;76615.56;;;-142.75;67.81
41632;BME280;37452;51.938;4.624;2022-07-17T10:03:33;76605.72;;;-142.75;68.29
41632;BME280;37452;51.938;4.624;2022-07-17T10:05:59;76615.56;;;-142.75;68.88
41632;BME280;37452;51.938;4.624;2022-07-17T10:08:26;76603.75;;;-142.75;69.48
41632;BME280;37452;51.938;4.624;2022-07-17T10:10:51;76591.94;;;-142.75;68.22
41632;BME280;37452;51.938;4.624;2022-07-17T10:13:17;76629.34;;;-142.75;69.01
41632;BME280;37452;51.938;4.624;2022-07-17T10:15:42;76633.28;;;-142.75;68.82
41632;BME280;37452;51.938;4.624;2022-07-17T10:18:07;76605.72;;;-142.75;70.09
41632;BME280;37452;51.938;4.624;2022-07-17T10:20:33;76595.88;;;-142.75;67.36
41632;BME280;37452;51.938;4.624;2022-07-17T10:22:58;76605.72;;;-142.75;66.14
41632;BME280;37452;51.938;4.624;2022-07-17T10:25:23;76605.72;;;-142.75;66.71
41632;BME280;37452;51.938;4.624;2022-07-17T10:27:53;76554.53;;;-142.75;67.59
41632;BME280;37452;51.938;4.624;2022-07-17T10:30:25;76534.84;;;-142.75;66.28
41632;BME280;37452;51.938;4.624;2022-07-17T10:32:52;76499.44;;;-142.75;67.78
41632;BME280;37452;51.938;4.624;2022-07-17T10:35:18;76507.31;;;-142.75;66.57
41632;BME280;37452;51.938;4.624;2022-07-17T10:37:43;76530.91;;;-142.75;63.88
41632;BME280;37452;51.938;4.624;2022-07-17T10:42:40;76530.91;;;-142.75;63.96
41632;BME280;37452;51.938;4.624;2022-07-17T10:50:11;76542.72;;;-142.75;65.52
41632;BME280;37452;51.938;4.624;2022-07-17T10:52:37;76517.16;;;-142.75;64.67
41632;BME280;37452;51.938;4.624;2022-07-17T10:55:02;76578.16;;;-142.75;63.00
41632;BME280;37452;51.938;4.624;2022-07-17T10:57:30;76584.06;;;-142.75;65.03
41632;BME280;37452;51.938;4.624;2022-07-17T10:59:55;76568.31;;;-142.75;63.98
41632;BME280;37452;51.938;4.624;2022-07-17T11:02:28;76538.78;;;-142.75;64.22
41632;BME280;37452;51.938;4.624;2022-07-17T11:04:54;76538.78;;;-142.75;63.75
41632;BME280;37452;51.938;4.624;2022-07-17T11:07:19;76515.19;;;-142.75;63.90
41632;BME280;37452;51.938;4.624;2022-07-17T11:09:47;76475.81;;;-142.75;64.07
41632;BME280;37452;51.938;4.624;2022-07-17T11:12:12;76442.34;;;-142.75;60.43
41632;BME280;37452;51.938;4.624;2022-07-17T11:14:38;76440.38;;;-142.75;63.95
41632;BME280;37452;51.938;4.624;2022-07-17T11:17:03;76426.59;;;-142.75;62.56
41632;BME280;37452;51.938;4.624;2022-07-17T11:21:58;76361.63;;;-142.75;60.96
41632;BME280;37452;51.938;4.624;2022-07-17T11:24:23;76338.03;;;-142.75;60.63
41632;BME280;37452;51.938;4.624;2022-07-17T11:26:51;76343.94;;;-142.75;61.80
41632;BME280;37452;51.938;4.624;2022-07-17T11:29:16;76341.97;;;-142.75;61.48
41632;BME280;37452;51.938;4.624;2022-07-17T11:31:42;76395.09;;;-142.75;60.82
41632;BME280;37452;51.938;4.624;2022-07-17T11:34:08;76369.50;;;-142.75;60.94
41632;BME280;37452;51.938;4.624;2022-07-17T11:36:37;76349.81;;;-142.75;61.25
41632;BME280;37452;51.938;4.624;2022-07-17T11:39:04;76391.16;;;-142.75;60.10
41632;BME280;37452;51.938;4.624;2022-07-17T11:41:37;76418.72;;;-142.75;60.63
41632;BME280;37452;51.938;4.624;2022-07-17T11:44:03;76373.44;;;-142.75;61.90
41632;BME280;37452;51.938;4.624;2022-07-17T11:46:29;76340.00;;;-142.75;65.73
41632;BME280;37452;51.938;4.624;2022-07-17T11:48:55;76373.44;;;-142.75;63.02
41632;BME280;37452;51.938;4.624;2022-07-17T11:51:20;76353.78;;;-142.75;60.53
41632;BME280;37452;51.938;4.624;2022-07-17T11:53:45;76377.38;;;-142.75;61.84
41632;BME280;37452;51.938;4.624;2022-07-17T11:56:19;76328.19;;;-142.75;63.00
41632;BME280;37452;51.938;4.624;2022-07-17T11:58:45;76284.88;;;-142.75;61.96
41632;BME280;37452;51.938;4.624;2022-07-17T12:01:11;76282.91;;;-142.75;60.48
41632;BME280;37452;51.938;4.624;2022-07-17T12:03:36;76280.94;;;-142.75;59.63
41632;BME280;37452;51.938;4.624;2022-07-17T12:06:02;76393.13;;;-142.75;58.17
41632;BME280;37452;51.938;4.624;2022-07-17T12:08:27;76355.72;;;-142.75;62.99
41632;BME280;37452;51.938;4.624;2022-07-17T12:10:59;76294.72;;;-142.75;65.12
41632;BME280;37452;51.938;4.624;2022-07-17T12:13:24;76282.91;;;-142.75;57.95
41632;BME280;37452;51.938;4.624;2022-07-17T12:16:01;76282.91;;;-142.75;56.32
41632;BME280;37452;51.938;4.624;2022-07-17T12:18:28;76267.16;;;-142.75;58.10
41632;BME280;37452;51.938;4.624;2022-07-17T12:20:55;76284.88;;;-142.75;57.53
41632;BME280;37452;51.938;4.624;2022-07-17T12:23:34;76322.28;;;-142.75;57.58
41632;BME280;37452;51.938;4.624;2022-07-17T12:26:11;76334.09;;;-142.75;58.78
41632;BME280;37452;51.938;4.624;2022-07-17T12:28:37;76318.34;;;-142.75;59.85
41632;BME280;37452;51.938;4.624;2022-07-17T12:31:02;76326.22;;;-142.75;58.25
41632;BME280;37452;51.938;4.624;2022-07-17T12:33:28;76351.81;;;-142.75;57.66
41632;BME280;37452;51.938;4.624;2022-07-17T12:35:53;76343.94;;;-142.75;60.41
41632;BME280;37452;51.938;4.624;2022-07-17T12:38:18;76353.78;;;-142.75;59.71